createdAt,value
2022-10-28T00:00:34.704Z,57.90
2022-10-28T00:03:01.186Z,58.40
2022-10-28T00:05:27.669Z,58.40
2022-10-28T00:07:54.387Z,58.40
2022-10-28T00:10:21.176Z,57.80
2022-10-28T00:12:47.615Z,58.30
2022-10-28T00:15:14.064Z,58.40
2022-10-28T00:17:40.484Z,58.30
2022-10-28T00:20:06.925Z,57.70
2022-10-28T00:22:33.352Z,58.30
2022-10-28T00:24:59.789Z,58.30
2022-10-28T00:27:26.234Z,58.20
2022-10-28T00:29:52.643Z,57.60
2022-10-28T00:32:19.075Z,58.20
2022-10-28T00:34:45.497Z,58.10
2022-10-28T00:37:11.929Z,58.20
2022-10-28T00:39:38.347Z,57.70
2022-10-28T00:42:04.800Z,58.20
2022-10-28T00:44:31.245Z,58.10
2022-10-28T00:46:57.688Z,58.20
2022-10-28T00:49:24.111Z,57.60
2022-10-28T00:51:50.552Z,58.10
2022-10-28T00:54:16.971Z,58.10
2022-10-28T00:56:43.392Z,58.10
2022-10-28T00:59:09.820Z,57.50
2022-10-28T01:01:36.347Z,58.00
2022-10-28T01:04:02.847Z,58.00
2022-10-28T01:06:29.267Z,58.10
2022-10-28T01:08:59.044Z,58.00
2022-10-28T01:11:26.647Z,57.60
2022-10-28T01:13:53.079Z,58.00
2022-10-28T01:16:19.513Z,57.90
2022-10-28T01:18:45.948Z,58.50
2022-10-28T01:21:12.392Z,57.40
2022-10-28T01:23:38.838Z,57.90
2022-10-28T01:26:05.254Z,57.90
2022-10-28T01:28:31.697Z,58.00
2022-10-28T01:30:58.125Z,57.60
2022-10-28T01:33:24.550Z,58.00
2022-10-28T01:35:50.975Z,58.00
2022-10-28T01:38:17.386Z,58.10
2022-10-28T01:40:43.808Z,57.50
2022-10-28T01:43:10.241Z,57.90
2022-10-28T01:45:36.671Z,58.00
2022-10-28T01:48:03.101Z,57.90
2022-10-28T01:50:29.524Z,57.40
2022-10-28T01:52:56.099Z,57.90
2022-10-28T01:55:22.675Z,57.90
2022-10-28T01:57:49.101Z,57.90
2022-10-28T02:00:15.516Z,57.40
2022-10-28T02:02:41.967Z,58.00
2022-10-28T02:05:08.440Z,57.90
2022-10-28T02:07:34.871Z,57.90
2022-10-28T02:10:01.302Z,57.30
2022-10-28T02:12:27.734Z,57.90
2022-10-28T02:14:54.257Z,57.90
2022-10-28T02:17:20.752Z,57.90
2022-10-28T02:19:47.178Z,57.30
2022-10-28T02:22:13.595Z,58.40
2022-10-28T02:24:40.009Z,57.70
2022-10-28T02:27:06.477Z,57.90
2022-10-28T02:29:32.891Z,57.30
2022-10-28T02:31:59.339Z,57.90
2022-10-28T02:34:25.778Z,57.80
2022-10-28T02:36:52.196Z,57.90
2022-10-28T02:39:18.625Z,57.30
2022-10-28T02:41:45.068Z,57.30
2022-10-28T02:44:11.477Z,57.80
2022-10-28T02:46:37.893Z,57.20
2022-10-28T02:49:04.314Z,57.70
2022-10-28T02:51:30.732Z,57.10
2022-10-28T02:53:57.158Z,57.60
2022-10-28T02:56:23.713Z,57.60
2022-10-28T02:58:50.113Z,57.60
2022-10-28T03:01:16.688Z,57.00
2022-10-28T03:03:43.285Z,57.60
2022-10-28T03:06:09.827Z,57.50
2022-10-28T03:08:36.256Z,57.50
2022-10-28T03:11:02.796Z,57.00
2022-10-28T03:13:29.235Z,57.60
2022-10-28T03:15:55.648Z,57.50
2022-10-28T03:18:22.066Z,57.50
2022-10-28T03:20:48.516Z,57.00
2022-10-28T03:23:14.925Z,57.50
2022-10-28T03:25:41.352Z,57.60
2022-10-28T03:28:07.761Z,57.60
2022-10-28T03:30:34.202Z,57.00
2022-10-28T03:33:00.620Z,57.00
2022-10-28T03:35:27.031Z,57.50
2022-10-28T03:37:53.456Z,57.10
2022-10-28T03:40:19.874Z,57.00
2022-10-28T03:42:46.284Z,58.30
2022-10-28T03:45:12.707Z,57.20
2022-10-28T03:47:39.128Z,57.80
2022-10-28T03:50:05.637Z,57.10
2022-10-28T03:52:32.157Z,57.30
2022-10-28T03:54:58.575Z,57.80
2022-10-28T03:57:24.992Z,58.40
2022-10-28T03:59:51.407Z,57.20
2022-10-28T04:02:18.009Z,57.60
2022-10-28T04:04:44.514Z,57.70
2022-10-28T04:07:10.932Z,57.10
2022-10-28T04:09:37.395Z,57.10
2022-10-28T04:14:30.334Z,57.70
2022-10-28T04:16:56.753Z,57.50
2022-10-28T04:19:23.181Z,57.50
2022-10-28T04:21:49.591Z,56.90
2022-10-28T04:24:16.009Z,57.50
2022-10-28T04:26:42.434Z,57.50
2022-10-28T04:29:08.856Z,57.00
2022-10-28T04:31:35.291Z,57.00
2022-10-28T04:34:01.721Z,57.50
2022-10-28T04:36:28.158Z,57.00
2022-10-28T04:38:54.597Z,57.50
2022-10-28T04:41:21.031Z,57.00
2022-10-28T04:43:47.465Z,57.50
2022-10-28T04:46:13.939Z,57.50
2022-10-28T04:48:40.447Z,57.50
2022-10-28T04:51:06.880Z,57.00
2022-10-28T04:53:33.316Z,57.50
2022-10-28T04:55:59.739Z,57.00
2022-10-28T04:58:26.172Z,57.10
2022-10-28T05:00:52.583Z,57.00
2022-10-28T05:03:19.016Z,57.70
2022-10-28T05:05:45.449Z,57.50
2022-10-28T05:08:11.884Z,57.50
2022-10-28T05:10:38.334Z,57.10
2022-10-28T05:13:04.814Z,57.50
2022-10-28T05:15:31.238Z,57.70
2022-10-28T05:17:57.653Z,57.10
2022-10-28T05:20:24.070Z,57.10
2022-10-28T05:22:50.614Z,57.00
2022-10-28T05:25:17.143Z,57.60
2022-10-28T05:27:43.559Z,58.10
2022-10-28T05:30:10.006Z,57.00
2022-10-28T05:32:36.420Z,57.00
2022-10-28T05:35:02.852Z,57.50
2022-10-28T05:37:29.295Z,57.60
2022-10-28T05:39:56.951Z,57.20
2022-10-28T05:42:23.397Z,57.60
2022-10-28T05:44:49.816Z,57.70
2022-10-28T05:47:16.242Z,57.70
2022-10-28T05:49:42.714Z,57.20
2022-10-28T05:52:09.137Z,57.70
2022-10-28T05:54:35.564Z,57.70
2022-10-28T05:57:01.978Z,57.20
2022-10-28T06:01:55.392Z,57.20
2022-10-28T06:04:21.868Z,57.20
2022-10-28T06:06:48.275Z,57.70
2022-10-28T06:09:14.689Z,57.70
2022-10-28T06:11:39.581Z,57.10
2022-10-28T06:14:06.019Z,57.60
2022-10-28T06:16:32.459Z,57.60
2022-10-28T06:18:58.868Z,57.70
2022-10-28T06:21:25.302Z,57.10
2022-10-28T06:23:51.716Z,57.80
2022-10-28T06:26:18.142Z,57.60
2022-10-28T06:28:44.564Z,57.60
2022-10-28T06:31:10.990Z,57.10
2022-10-28T06:33:37.399Z,57.00
2022-10-28T06:36:03.831Z,57.80
2022-10-28T06:38:30.278Z,57.70
2022-10-28T06:40:56.709Z,57.10
2022-10-28T06:43:23.134Z,57.70
2022-10-28T06:45:49.552Z,57.60
2022-10-28T06:48:17.481Z,57.10
2022-10-28T06:50:43.903Z,57.00
2022-10-28T06:53:10.321Z,57.70
2022-10-28T06:55:36.738Z,57.20
2022-10-28T06:58:03.152Z,57.70
2022-10-28T07:03:01.342Z,57.20
2022-10-28T07:05:28.015Z,57.20
2022-10-28T07:07:54.808Z,57.60
2022-10-28T07:10:21.395Z,57.20
2022-10-28T07:12:47.815Z,57.70
2022-10-28T07:15:14.235Z,57.60
2022-10-28T07:17:40.655Z,57.70
2022-10-28T07:20:07.110Z,57.20
2022-10-28T07:22:33.529Z,57.70
2022-10-28T07:24:59.974Z,57.70
2022-10-28T07:27:26.391Z,57.20
2022-10-28T07:29:52.835Z,57.10
2022-10-28T07:32:19.258Z,57.70
2022-10-28T07:34:45.703Z,57.70
2022-10-28T07:37:12.130Z,57.20
2022-10-28T07:39:38.565Z,57.30
2022-10-28T07:42:04.979Z,57.80
2022-10-28T07:44:31.399Z,57.80
2022-10-28T07:46:58.336Z,58.10
2022-10-28T07:49:24.986Z,57.90
2022-10-28T07:51:51.417Z,57.50
2022-10-28T07:54:17.830Z,57.90
2022-10-28T07:56:44.261Z,57.90
2022-10-28T07:59:10.673Z,57.90
2022-10-28T08:01:37.203Z,57.40
2022-10-28T08:04:03.686Z,58.00
2022-10-28T08:06:30.118Z,57.70
2022-10-28T08:08:56.557Z,57.70
2022-10-28T08:11:22.971Z,57.20
2022-10-28T08:13:49.404Z,57.80
2022-10-28T08:16:15.849Z,57.70
2022-10-28T08:18:42.264Z,57.80
2022-10-28T08:21:08.780Z,57.30
2022-10-28T08:23:35.226Z,57.80
2022-10-28T08:26:01.668Z,57.90
2022-10-28T08:28:28.094Z,58.00
2022-10-28T08:31:08.284Z,57.30
2022-10-28T08:33:35.321Z,57.30
2022-10-28T08:36:01.769Z,58.00
2022-10-28T08:38:28.442Z,57.50
2022-10-28T08:40:54.904Z,57.40
2022-10-28T08:43:34.928Z,58.00
2022-10-28T08:46:07.722Z,58.00
2022-10-28T08:48:34.149Z,58.10
2022-10-28T08:51:00.552Z,57.50
2022-10-28T08:53:26.985Z,58.00
2022-10-28T08:55:53.429Z,57.60
2022-10-28T08:58:19.877Z,58.10
2022-10-28T09:00:46.306Z,57.70
2022-10-28T09:03:12.742Z,58.10
2022-10-28T09:05:39.179Z,58.00
2022-10-28T09:08:05.599Z,57.50
2022-10-28T09:10:32.037Z,57.60
2022-10-28T09:12:58.464Z,58.00
2022-10-28T09:15:24.881Z,58.20
2022-10-28T09:17:51.615Z,58.20
2022-10-28T09:20:18.177Z,57.50
2022-10-28T09:22:44.608Z,58.20
2022-10-28T09:25:11.047Z,58.10
2022-10-28T09:27:37.510Z,58.10
2022-10-28T09:30:03.945Z,57.60
2022-10-28T09:32:30.358Z,58.80
2022-10-28T09:34:56.808Z,58.20
2022-10-28T09:37:23.239Z,58.10
2022-10-28T09:39:49.676Z,57.70
2022-10-28T09:42:16.100Z,58.20
2022-10-28T09:44:42.557Z,58.10
2022-10-28T09:47:09.003Z,58.20
2022-10-28T09:49:35.485Z,57.60
2022-10-28T09:52:01.918Z,58.10
2022-10-28T09:54:28.340Z,58.20
2022-10-28T09:56:54.766Z,58.10
2022-10-28T09:59:21.208Z,57.70
2022-10-28T10:01:47.750Z,57.60
2022-10-28T10:04:14.281Z,58.30
2022-10-28T10:06:40.701Z,58.20
2022-10-28T10:09:07.123Z,57.70
2022-10-28T10:11:33.529Z,58.20
2022-10-28T10:13:59.951Z,57.60
2022-10-28T10:16:26.369Z,58.20
2022-10-28T10:18:52.810Z,57.60
2022-10-28T10:21:19.277Z,57.70
2022-10-28T10:23:45.699Z,58.30
2022-10-28T10:26:12.614Z,58.30
2022-10-28T10:28:39.178Z,57.70
2022-10-28T10:31:05.591Z,57.70
2022-10-28T10:33:32.023Z,58.20
2022-10-28T10:36:00.176Z,57.80
2022-10-28T10:38:26.858Z,58.30
2022-10-28T10:40:53.277Z,57.80
2022-10-28T10:43:19.694Z,57.70
2022-10-28T10:45:46.134Z,58.30
2022-10-28T10:48:12.576Z,58.30
2022-10-28T10:50:39.004Z,57.90
2022-10-28T10:53:05.458Z,58.20
2022-10-28T10:55:31.906Z,58.40
2022-10-28T10:57:58.347Z,58.40
2022-10-28T11:00:24.767Z,58.20
2022-10-28T11:02:55.028Z,58.90
2022-10-28T11:05:25.777Z,59.20
2022-10-28T11:07:55.902Z,59.10
2022-10-28T11:10:22.628Z,59.10
2022-10-28T11:12:49.563Z,59.50
2022-10-28T11:15:16.036Z,59.50
2022-10-28T11:17:42.462Z,60.00
2022-10-28T11:20:08.912Z,59.50
2022-10-28T11:22:35.336Z,60.10
2022-10-28T11:25:01.760Z,60.00
2022-10-28T11:27:28.203Z,59.40
2022-10-28T11:29:54.652Z,59.30
2022-10-28T11:32:21.092Z,59.70
2022-10-28T11:34:47.539Z,59.60
2022-10-28T11:37:13.971Z,59.80
2022-10-28T11:39:40.405Z,59.50
2022-10-28T11:42:06.849Z,59.10
2022-10-28T11:49:30.627Z,59.40
2022-10-28T11:51:58.918Z,59.10
2022-10-28T11:54:25.361Z,60.80
2022-10-28T11:59:18.811Z,59.50
2022-10-28T12:01:45.311Z,60.00
2022-10-28T12:04:11.798Z,60.70
2022-10-28T12:06:38.224Z,59.10
2022-10-28T12:09:04.719Z,59.40
2022-10-28T12:11:31.186Z,58.50
2022-10-28T12:18:51.620Z,59.50
2022-10-28T12:21:18.160Z,59.90
2022-10-28T12:26:11.664Z,59.30
2022-10-28T12:28:38.088Z,60.10
2022-10-28T12:31:04.512Z,59.00
2022-10-28T12:35:57.930Z,58.80
2022-10-28T12:40:51.336Z,59.40
2022-10-28T12:45:44.768Z,59.30
2022-10-28T12:48:11.186Z,59.70
2022-10-28T12:53:04.655Z,59.90
2022-10-28T12:55:31.076Z,59.50
2022-10-28T12:57:57.737Z,59.70
2022-10-28T13:07:45.647Z,59.20
2022-10-28T13:10:12.177Z,60.40
2022-10-28T13:24:54.014Z,58.90
2022-10-28T13:27:20.459Z,59.70
2022-10-28T13:29:46.911Z,59.30
2022-10-28T13:32:13.342Z,59.20
2022-10-28T13:37:06.750Z,59.20
2022-10-28T13:39:33.193Z,59.50
2022-10-28T13:41:59.640Z,59.00
2022-10-28T13:46:53.010Z,59.50
2022-10-28T13:49:19.430Z,59.10
2022-10-28T13:51:45.876Z,58.80
2022-10-28T13:54:12.306Z,58.40
2022-10-28T13:56:38.837Z,58.90
2022-10-28T13:59:05.304Z,58.50
2022-10-28T14:01:31.885Z,58.50
2022-10-28T14:03:58.418Z,58.50
2022-10-28T14:08:51.909Z,58.60
2022-10-28T14:11:18.333Z,58.20
2022-10-28T14:13:44.754Z,58.90
2022-10-28T14:16:14.199Z,59.20
2022-10-28T14:23:38.362Z,58.90
2022-10-28T14:26:04.836Z,58.40
2022-10-28T14:28:31.277Z,59.10
2022-10-28T14:33:24.669Z,58.70
2022-10-28T14:35:51.098Z,59.50
2022-10-28T14:40:44.499Z,58.40
2022-10-28T14:43:11.218Z,59.00
2022-10-28T14:45:37.638Z,59.70
2022-10-28T14:48:04.063Z,58.50
2022-10-28T14:52:57.431Z,59.40
2022-10-28T14:55:23.847Z,59.00
2022-10-28T14:57:50.327Z,58.80
2022-10-28T15:00:16.769Z,58.70
2022-10-28T15:05:10.272Z,60.00
2022-10-28T15:07:38.314Z,58.40
2022-10-28T15:12:36.202Z,59.60
2022-10-28T15:15:02.621Z,59.40
2022-10-28T15:17:29.049Z,58.30
2022-10-28T15:22:22.459Z,59.30
2022-10-28T15:24:49.019Z,58.30
2022-10-28T15:27:15.481Z,58.70
2022-10-28T15:32:08.870Z,59.90
2022-10-28T15:34:35.321Z,59.10
2022-10-28T15:37:01.756Z,58.90
2022-10-28T15:41:55.168Z,59.30
2022-10-28T15:44:21.592Z,59.20
2022-10-28T15:46:48.044Z,59.80
2022-10-28T15:51:41.445Z,59.80
2022-10-28T15:54:07.865Z,60.10
2022-10-28T15:56:34.337Z,58.60
2022-10-28T15:59:00.758Z,59.10
2022-10-28T16:03:54.312Z,59.60
2022-10-28T16:06:20.733Z,59.30
2022-10-28T16:08:47.187Z,59.50
2022-10-28T16:13:40.623Z,59.80
2022-10-28T16:16:07.052Z,59.20
2022-10-28T16:18:33.472Z,59.40
2022-10-28T16:23:26.944Z,59.70
2022-10-28T16:25:53.370Z,59.50
2022-10-28T16:28:19.800Z,59.60
2022-10-28T16:33:13.224Z,60.10
2022-10-28T16:35:39.656Z,59.40
2022-10-28T16:38:06.083Z,60.20
2022-10-28T16:45:46.493Z,60.40
2022-10-28T16:48:12.927Z,60.10
2022-10-28T16:53:06.353Z,61.20
2022-10-28T16:55:32.784Z,59.80
2022-10-28T17:00:26.368Z,59.70
2022-10-28T17:02:52.784Z,62.70
2022-10-28T17:05:19.206Z,60.00
2022-10-28T17:10:12.607Z,59.90
2022-10-28T17:12:39.030Z,60.60
2022-10-28T17:15:05.482Z,59.70
2022-10-28T17:19:58.889Z,60.00
2022-10-28T17:22:25.306Z,61.40
2022-10-28T17:24:51.751Z,60.30
2022-10-28T17:27:18.167Z,60.10
2022-10-28T17:32:11.613Z,62.90
2022-10-28T17:34:38.049Z,60.20
2022-10-28T17:37:04.483Z,59.10
2022-10-28T17:41:57.879Z,59.60
2022-10-28T17:44:24.316Z,60.10
2022-10-28T17:49:17.734Z,59.00
2022-10-28T17:51:44.166Z,60.20
2022-10-28T17:54:10.636Z,60.20
2022-10-28T17:56:37.121Z,60.70
2022-10-28T18:01:30.716Z,60.70
2022-10-28T18:03:57.277Z,58.80
2022-10-28T18:06:23.704Z,60.90
2022-10-28T18:11:21.957Z,59.60
2022-10-28T18:13:48.385Z,59.70
2022-10-28T18:18:42.822Z,59.80
2022-10-28T18:26:03.489Z,59.10
2022-10-28T18:28:29.944Z,60.00
2022-10-28T18:30:56.361Z,60.00
2022-10-28T18:35:49.775Z,59.80
2022-10-28T18:43:10.210Z,62.00
2022-10-28T18:45:36.633Z,59.80
2022-10-28T18:48:03.052Z,62.50
2022-10-28T18:52:56.954Z,60.70
2022-10-28T19:00:19.168Z,61.90
2022-10-28T19:02:47.797Z,61.60
2022-10-28T19:05:14.556Z,61.50
2022-10-28T19:07:40.989Z,60.50
2022-10-28T19:10:07.433Z,60.20
2022-10-28T19:12:33.884Z,59.60
2022-10-28T19:17:27.324Z,59.50
2022-10-28T19:19:53.759Z,61.20
2022-10-28T19:24:47.193Z,59.90
2022-10-28T19:27:13.616Z,60.30
2022-10-28T19:29:40.046Z,60.40
2022-10-28T19:32:06.488Z,61.50
2022-10-28T19:34:32.938Z,60.60
2022-10-28T19:36:59.387Z,60.40
2022-10-28T19:41:52.755Z,59.80
2022-10-28T19:44:19.208Z,61.10
2022-10-28T19:46:45.643Z,61.60
2022-10-28T19:51:39.017Z,62.60
2022-10-28T19:54:05.434Z,63.00
2022-10-28T19:58:58.816Z,63.20
2022-10-28T20:06:19.368Z,62.60
2022-10-28T20:08:45.789Z,60.70
2022-10-28T20:11:12.220Z,60.00
2022-10-28T20:13:38.637Z,60.30
2022-10-28T20:16:05.059Z,62.30
2022-10-28T20:18:31.489Z,63.40
2022-10-28T20:20:57.916Z,60.30
2022-10-28T20:23:24.345Z,60.20
2022-10-28T20:25:50.785Z,61.40
2022-10-28T20:33:11.160Z,60.50
2022-10-28T20:38:04.617Z,61.30
2022-10-28T20:40:31.065Z,60.00
2022-10-28T20:42:57.855Z,61.10
2022-10-28T20:45:24.516Z,60.00
2022-10-28T20:47:50.969Z,61.00
2022-10-28T20:50:17.408Z,60.40
2022-10-28T20:52:43.860Z,60.40
2022-10-28T20:57:37.274Z,61.10
2022-10-28T21:00:03.713Z,60.60
2022-10-28T21:02:30.282Z,62.90
2022-10-28T21:12:17.926Z,60.40
2022-10-28T21:19:38.327Z,62.70
2022-10-28T21:22:04.748Z,63.10
2022-10-28T21:24:31.174Z,60.60
2022-10-28T21:29:24.598Z,60.70
2022-10-28T21:36:44.967Z,60.80
2022-10-28T21:44:05.307Z,61.20
2022-10-28T21:46:31.744Z,61.00
2022-10-28T21:48:58.159Z,62.40
2022-10-28T21:53:51.535Z,60.40
2022-10-28T21:56:19.124Z,60.40
2022-10-28T21:58:45.946Z,59.80
2022-10-28T22:01:12.481Z,59.90
2022-10-28T22:06:05.963Z,63.20
2022-10-28T22:08:32.398Z,59.80
2022-10-28T22:10:58.839Z,59.90
2022-10-28T22:18:19.210Z,60.60
2022-10-28T22:23:12.636Z,61.90
2022-10-28T22:25:39.063Z,60.10
2022-10-28T22:28:05.511Z,60.70
2022-10-28T22:32:58.966Z,60.10
2022-10-28T22:35:25.393Z,60.80
2022-10-28T22:37:51.923Z,60.40
2022-10-28T22:42:45.366Z,60.90
2022-10-28T22:45:11.789Z,61.20
2022-10-28T22:47:38.199Z,60.40
2022-10-28T22:50:04.636Z,60.10
2022-10-28T22:52:31.053Z,60.60
2022-10-28T22:54:57.530Z,60.40
2022-10-28T22:57:23.954Z,60.20
2022-10-28T22:59:50.408Z,59.50
2022-10-28T23:02:16.972Z,60.50
2022-10-28T23:12:04.439Z,60.90
2022-10-28T23:14:30.884Z,61.70
2022-10-28T23:16:57.311Z,60.20
2022-10-28T23:19:23.735Z,60.10
2022-10-28T23:24:17.147Z,60.90
2022-10-28T23:26:43.666Z,60.40
2022-10-28T23:29:10.124Z,59.80
2022-10-28T23:31:36.559Z,60.60
2022-10-28T23:34:02.981Z,61.20
2022-10-28T23:36:29.418Z,61.10
2022-10-28T23:38:55.974Z,60.00
2022-10-28T23:41:22.402Z,60.30
2022-10-28T23:43:48.900Z,60.70
2022-10-28T23:46:15.324Z,60.40
2022-10-28T23:48:41.748Z,60.00
2022-10-28T23:51:08.171Z,60.70
2022-10-28T23:53:34.584Z,61.60
2022-10-28T23:56:01.010Z,60.80
